Time;durP1;ratioP1;P1;durP2;ratioP2;P2;SDS_P1;SDS_P2;PMS_P1;PMS_P2;Temp;Humidity;BMP_temperature;BMP_pressure;BME280_temperature;BME280_humidity;BME280_pressure;Samples;Min_cycle;Max_cycle;Signal;HPM_P1;HPM_P2
2022/11/10 00:01:52;;;;;;;46.80;29.40;;;10.10;99.90;;;;;;5042853;28;20055;-89
2022/11/10 00:04:37;;;;;;;45.13;28.48;;;10.10;99.90;;;;;;5042997;28;20035;-92
2022/11/10 00:07:27;;;;;;;47.65;28.10;;;10.10;99.90;;;;;;5043098;28;20067;-90
2022/11/10 00:10:21;;;;;;;44.00;27.95;;;10.00;99.90;;;;;;5046621;28;20428;-93
2022/11/10 00:13:07;;;;;;;41.70;27.55;;;10.10;99.90;;;;;;5047440;28;20047;-91
2022/11/10 00:19:18;;;;;;;41.10;25.87;;;10.00;99.90;;;;;;4999046;28;20045;-91
2022/11/10 00:22:02;;;;;;;41.50;27.40;;;10.10;99.90;;;;;;4998415;28;20077;-92
2022/11/10 00:24:47;;;;;;;43.20;26.40;;;10.10;99.90;;;;;;5041718;28;20083;-91
2022/11/10 00:27:33;;;;;;;41.75;26.02;;;10.10;99.90;;;;;;5037170;28;20440;-92
2022/11/10 00:30:18;;;;;;;42.53;27.00;;;10.10;99.90;;;;;;5036837;28;20104;-92
2022/11/10 00:33:04;;;;;;;42.00;25.42;;;10.20;99.90;;;;;;5036378;28;20095;-92
2022/11/10 00:35:48;;;;;;;37.92;24.25;;;10.10;99.90;;;;;;5036408;28;20048;-91
2022/11/10 00:38:34;;;;;;;44.78;25.83;;;10.10;99.90;;;;;;5036650;28;20048;-91
2022/11/10 00:41:20;;;;;;;37.80;24.33;;;10.10;99.90;;;;;;5036359;28;20057;-92
2022/11/10 00:44:05;;;;;;;39.17;24.48;;;10.10;99.90;;;;;;5036639;28;20063;-92
2022/11/10 00:46:50;;;;;;;37.70;22.50;;;10.00;99.90;;;;;;5036388;28;20528;-92
2022/11/10 00:49:35;;;;;;;36.75;22.65;;;10.00;99.90;;;;;;5036292;28;20121;-92
2022/11/10 00:52:20;;;;;;;36.15;23.00;;;10.00;99.90;;;;;;5044415;28;20044;-92
2022/11/10 00:55:06;;;;;;;33.80;22.50;;;10.00;99.90;;;;;;5058853;28;20064;-91
2022/11/10 00:57:51;;;;;;;39.00;22.88;;;9.90;99.90;;;;;;5036108;28;20107;-92
2022/11/10 01:00:37;;;;;;;36.55;21.42;;;9.90;99.90;;;;;;5036200;28;20079;-91
2022/11/10 01:03:21;;;;;;;35.83;22.75;;;9.90;99.90;;;;;;5035938;28;20513;-91
2022/11/10 01:06:15;;;;;;;37.47;23.02;;;9.90;99.90;;;;;;5036528;28;20040;-92
2022/11/10 01:09:00;;;;;;;36.53;23.27;;;9.80;99.90;;;;;;5036226;28;20133;-92
2022/11/10 01:11:45;;;;;;;40.53;24.98;;;9.70;99.90;;;;;;5035724;28;20060;-91
2022/11/10 01:14:30;;;;;;;46.97;28.73;;;9.70;99.90;;;;;;5040679;28;20052;-91
2022/11/10 01:17:16;;;;;;;63.15;34.08;;;9.70;99.90;;;;;;5041877;28;20470;-91
2022/11/10 01:20:01;;;;;;;51.70;31.30;;;9.70;99.90;;;;;;5044614;28;20048;-90
2022/11/10 01:22:46;;;;;;;46.85;29.48;;;9.60;99.90;;;;;;5046072;28;20444;-93
2022/11/10 01:25:31;;;;;;;49.72;29.13;;;9.60;99.90;;;;;;5041506;28;20082;-92
2022/11/10 01:28:16;;;;;;;50.90;29.08;;;9.50;99.90;;;;;;5041468;28;20040;-91
2022/11/10 01:31:05;;;;;;;52.42;28.55;;;9.60;99.90;;;;;;5041237;28;20080;-91
2022/11/10 01:33:50;;;;;;;49.63;28.05;;;9.50;99.90;;;;;;5041339;28;20091;-91
2022/11/10 01:36:35;;;;;;;44.90;26.92;;;9.50;99.90;;;;;;5041317;28;20040;-91
2022/11/10 01:39:20;;;;;;;48.22;28.75;;;9.40;99.90;;;;;;5041257;28;20039;-91
2022/11/10 01:42:06;;;;;;;56.95;31.00;;;9.40;99.90;;;;;;5042397;28;20048;-92
2022/11/10 01:45:28;;;;;;;52.55;30.23;;;9.40;99.90;;;;;;5041373;28;20059;-91
2022/11/10 01:48:48;;;;;;;56.35;28.92;;;9.30;99.90;;;;;;5055257;28;20048;-91
2022/11/10 01:51:59;;;;;;;56.88;31.23;;;9.30;99.90;;;;;;5040723;28;20079;-91
2022/11/10 01:54:48;;;;;;;46.17;28.40;;;9.30;99.90;;;;;;5041060;28;20052;-91
2022/11/10 01:57:36;;;;;;;48.28;30.05;;;9.30;99.90;;;;;;5040988;28;20091;-90
2022/11/10 02:00:21;;;;;;;50.08;27.85;;;9.30;99.90;;;;;;5040847;28;20132;-91
2022/11/10 02:03:47;;;;;;;47.53;29.05;;;9.30;99.90;;;;;;5040778;28;20587;-91
2022/11/10 02:06:39;;;;;;;46.75;29.50;;;9.30;99.90;;;;;;4980765;28;20044;-91
2022/11/10 02:09:25;;;;;;;45.53;28.63;;;9.30;99.90;;;;;;5040970;28;20043;-90
2022/11/10 02:12:11;;;;;;;53.83;31.85;;;9.30;99.90;;;;;;5040456;28;20059;-91
2022/11/10 02:14:56;;;;;;;49.70;29.15;;;9.30;99.90;;;;;;5040190;28;20048;-92
2022/11/10 02:17:44;;;;;;;48.95;29.83;;;9.30;99.90;;;;;;5040150;28;20047;-92
2022/11/10 02:20:29;;;;;;;48.17;29.23;;;9.40;99.90;;;;;;5040552;28;20405;-91
2022/11/10 02:23:30;;;;;;;45.65;28.95;;;9.40;99.90;;;;;;5039908;28;20044;-91
2022/11/10 02:26:23;;;;;;;45.35;27.95;;;9.40;99.90;;;;;;5040797;28;20381;-91
2022/11/10 02:29:08;;;;;;;43.45;26.55;;;9.40;99.90;;;;;;5040798;28;20051;-92
2022/11/10 02:31:53;;;;;;;40.67;25.90;;;9.40;99.90;;;;;;5040764;28;20151;-93
2022/11/10 02:34:39;;;;;;;43.40;27.55;;;9.40;99.90;;;;;;5040589;28;20069;-91
2022/11/10 02:37:24;;;;;;;43.33;26.95;;;9.40;99.90;;;;;;5040360;28;20064;-92
2022/11/10 02:40:10;;;;;;;42.15;27.85;;;9.40;99.90;;;;;;5064464;28;20079;-92
2022/11/10 02:42:56;;;;;;;43.00;26.17;;;9.40;99.90;;;;;;5049054;28;20063;-91
2022/11/10 02:45:44;;;;;;;41.90;27.75;;;9.30;99.90;;;;;;5039870;28;20087;-91
2022/11/10 02:48:29;;;;;;;46.03;29.02;;;9.30;99.90;;;;;;5039998;28;20036;-92
2022/11/10 02:51:14;;;;;;;42.47;27.40;;;9.30;99.90;;;;;;5039637;28;20044;-91
2022/11/10 02:54:02;;;;;;;46.47;29.08;;;9.20;99.90;;;;;;5040009;28;20091;-91
2022/11/10 02:56:48;;;;;;;52.22;31.92;;;9.20;99.90;;;;;;5039349;28;20043;-91
2022/11/10 02:59:33;;;;;;;45.25;30.58;;;9.20;99.90;;;;;;5039846;28;20098;-91
2022/11/10 03:02:18;;;;;;;48.55;29.77;;;9.10;99.90;;;;;;5042337;28;20424;-91
2022/11/10 03:05:04;;;;;;;58.50;34.00;;;9.10;99.90;;;;;;5040104;28;20075;-90
2022/11/10 03:07:54;;;;;;;49.30;30.75;;;9.10;99.90;;;;;;5039550;28;20167;-92
2022/11/10 03:10:41;;;;;;;48.80;30.00;;;9.10;99.90;;;;;;5039673;28;20102;-91
2022/11/10 03:13:26;;;;;;;47.40;30.05;;;9.10;99.90;;;;;;5039195;28;20090;-91
2022/11/10 03:16:11;;;;;;;51.78;31.05;;;9.10;99.90;;;;;;5033225;28;20103;-92
2022/11/10 03:18:56;;;;;;;50.40;32.05;;;9.20;99.90;;;;;;5033506;28;20125;-91
2022/11/10 03:21:41;;;;;;;50.28;31.77;;;9.10;99.90;;;;;;5034746;28;20099;-92
2022/11/10 03:24:26;;;;;;;51.17;31.73;;;9.10;99.90;;;;;;5033847;28;20063;-91
2022/11/10 03:27:11;;;;;;;58.10;33.47;;;9.10;99.90;;;;;;5033376;28;20552;-91
2022/11/10 03:29:56;;;;;;;45.75;30.80;;;9.10;99.90;;;;;;5033407;28;20036;-92
2022/11/10 03:32:41;;;;;;;43.78;29.25;;;9.10;99.90;;;;;;5033519;28;20555;-92
2022/11/10 03:35:26;;;;;;;45.30;27.85;;;9.10;99.90;;;;;;5033556;28;20047;-92
2022/11/10 03:38:11;;;;;;;51.80;31.65;;;9.20;99.90;;;;;;5033317;28;20390;-91
2022/11/10 03:40:56;;;;;;;54.88;32.72;;;9.20;99.90;;;;;;5033479;28;20040;-92
2022/11/10 03:43:41;;;;;;;45.42;30.35;;;9.20;99.90;;;;;;5033546;28;20049;-92
2022/11/10 03:46:26;;;;;;;46.63;30.67;;;9.20;99.90;;;;;;5033149;28;20056;-92
2022/11/10 03:49:12;;;;;;;49.72;31.70;;;9.20;99.90;;;;;;5033247;28;20045;-91
2022/11/10 03:51:57;;;;;;;62.40;33.72;;;9.20;99.90;;;;;;5033344;28;20044;-91
2022/11/10 03:54:42;;;;;;;61.75;33.63;;;9.20;99.90;;;;;;5033280;28;20048;-92
2022/11/10 03:57:27;;;;;;;74.50;36.38;;;9.20;99.90;;;;;;5034719;28;20041;-92
2022/11/10 04:00:13;;;;;;;65.20;33.45;;;9.20;99.90;;;;;;5033761;28;20063;-92
2022/11/10 04:02:58;;;;;;;61.08;32.63;;;9.20;99.90;;;;;;5034666;28;20041;-91
2022/11/10 04:08:59;;;;;;;59.25;34.25;;;9.10;99.90;;;;;;5036044;28;20424;-91
2022/11/10 04:18:19;;;;;;;53.92;30.77;;;9.00;99.90;;;;;;5053993;28;20040;-91
2022/11/10 04:21:04;;;;;;;54.22;31.58;;;9.00;99.90;;;;;;5053540;28;20175;-91
2022/11/10 04:23:49;;;;;;;53.55;32.00;;;9.00;99.90;;;;;;5038975;28;20099;-91
2022/11/10 04:26:39;;;;;;;49.10;28.83;;;8.90;99.90;;;;;;5039396;28;20080;-91
2022/11/10 04:29:24;;;;;;;48.17;30.25;;;8.90;99.90;;;;;;5038932;28;20068;-92
2022/11/10 04:32:09;;;;;;;48.85;29.98;;;8.90;99.90;;;;;;5038997;28;20136;-91
2022/11/10 04:34:56;;;;;;;46.40;29.17;;;8.80;99.90;;;;;;5039226;28;20102;-91
2022/11/10 04:37:41;;;;;;;47.85;28.77;;;8.80;99.90;;;;;;5039506;28;20048;-91
2022/11/10 04:40:26;;;;;;;48.42;30.42;;;8.80;99.90;;;;;;5041812;28;20508;-91
2022/11/10 04:43:17;;;;;;;47.42;32.03;;;8.80;99.90;;;;;;5043435;28;20036;-91
2022/11/10 04:46:03;;;;;;;44.10;28.48;;;8.80;99.90;;;;;;5042579;28;20056;-91
2022/11/10 04:48:49;;;;;;;48.53;30.48;;;8.80;99.90;;;;;;5042319;28;20056;-91
2022/11/10 04:51:38;;;;;;;49.67;29.42;;;8.80;99.90;;;;;;5042127;28;20135;-91
2022/11/10 04:54:23;;;;;;;54.00;31.02;;;8.80;99.90;;;;;;5042453;28;20056;-91
2022/11/10 04:57:08;;;;;;;45.97;28.70;;;8.80;99.90;;;;;;5042371;28;20079;-91
2022/11/10 04:59:53;;;;;;;52.05;31.55;;;8.80;99.90;;;;;;5041702;28;20544;-92
2022/11/10 05:02:38;;;;;;;46.88;30.65;;;8.80;99.90;;;;;;5041734;28;20500;-91
2022/11/10 05:05:24;;;;;;;49.38;30.73;;;8.80;99.90;;;;;;5043352;28;20040;-92
2022/11/10 05:08:09;;;;;;;51.03;31.67;;;8.80;99.90;;;;;;5057653;28;20051;-91
2022/11/10 05:10:54;;;;;;;61.53;35.90;;;8.80;99.90;;;;;;5042667;28;20040;-92
2022/11/10 05:13:40;;;;;;;57.10;34.45;;;8.80;99.90;;;;;;5042666;28;20055;-91
2022/11/10 05:16:25;;;;;;;55.20;32.47;;;8.70;99.90;;;;;;5041984;28;20047;-91
2022/11/10 05:19:10;;;;;;;52.25;32.72;;;8.70;99.90;;;;;;5041246;28;20091;-91
2022/11/10 05:21:55;;;;;;;51.70;31.60;;;8.70;99.90;;;;;;5041722;28;20079;-91
2022/11/10 05:24:41;;;;;;;51.03;32.10;;;8.70;99.90;;;;;;5045496;28;20044;-92
2022/11/10 05:27:28;;;;;;;53.00;33.15;;;8.70;99.90;;;;;;5043837;28;20047;-91
2022/11/10 05:30:13;;;;;;;46.97;29.65;;;8.80;99.90;;;;;;5044858;28;20032;-91
2022/11/10 05:32:58;;;;;;;55.60;34.25;;;8.80;99.90;;;;;;5041816;28;20056;-92
2022/11/10 05:35:43;;;;;;;48.92;31.30;;;8.80;99.90;;;;;;5042934;28;20036;-92
2022/11/10 05:38:29;;;;;;;51.97;30.75;;;8.80;99.90;;;;;;5059694;28;20040;-92
2022/11/10 05:41:14;;;;;;;44.33;28.52;;;8.80;99.90;;;;;;5055876;28;20163;-92
2022/11/10 05:43:59;;;;;;;47.45;29.30;;;8.90;99.90;;;;;;5042667;28;20044;-91
2022/11/10 05:46:44;;;;;;;49.40;29.90;;;8.90;99.90;;;;;;5045213;28;20094;-92
2022/11/10 05:49:29;;;;;;;48.17;30.33;;;8.90;99.90;;;;;;5049341;28;20048;-92
2022/11/10 05:52:18;;;;;;;44.95;28.05;;;9.00;99.90;;;;;;5058631;28;20093;-93
2022/11/10 05:55:06;;;;;;;44.58;28.85;;;9.10;99.90;;;;;;5050770;28;20082;-92
2022/11/10 05:57:53;;;;;;;49.03;29.38;;;9.10;99.90;;;;;;5045482;28;20040;-93
2022/11/10 06:00:38;;;;;;;43.33;27.85;;;9.20;99.90;;;;;;5043212;28;20035;-93
2022/11/10 06:03:36;;;;;;;41.67;27.20;;;9.30;99.90;;;;;;5140231;27;20564;-93
2022/11/10 06:06:22;;;;;;;45.15;27.67;;;9.40;99.90;;;;;;5120514;28;20053;-95
2022/11/10 06:09:10;;;;;;;44.90;27.95;;;9.50;99.90;;;;;;5121042;28;20057;-94
2022/11/10 06:12:09;;;;;;;42.90;28.00;;;9.60;99.90;;;;;;5126413;28;20128;-95
2022/11/10 06:14:58;;;;;;;50.42;29.08;;;9.70;99.90;;;;;;5106584;28;20030;-94
2022/11/10 06:17:43;;;;;;;45.92;27.73;;;9.90;99.90;;;;;;5097785;28;20070;-93
2022/11/10 06:20:29;;;;;;;37.78;26.10;;;10.20;99.90;;;;;;5094103;28;20035;-92
2022/11/10 06:23:15;;;;;;;44.72;26.45;;;10.70;99.90;;;;;;5090738;28;20106;-92
2022/11/10 06:26:00;;;;;;;36.35;25.50;;;11.20;99.90;;;;;;5091201;28;20504;-92
2022/11/10 06:28:45;;;;;;;37.53;26.90;;;11.60;99.90;;;;;;5090698;28;20047;-92
2022/11/10 06:31:30;;;;;;;45.15;29.45;;;11.90;99.90;;;;;;5090726;28;20090;-91
2022/11/10 06:34:15;;;;;;;36.33;29.52;;;12.20;99.90;;;;;;5090932;28;20048;-91
2022/11/10 06:37:01;;;;;;;37.08;29.23;;;12.60;99.90;;;;;;5091174;28;20044;-92
2022/11/10 06:39:46;;;;;;;40.35;32.83;;;13.00;99.90;;;;;;5076695;28;20043;-91
2022/11/10 06:42:35;;;;;;;42.47;33.30;;;13.10;99.90;;;;;;5090276;28;20088;-92
2022/11/10 06:45:21;;;;;;;43.00;34.60;;;13.00;99.90;;;;;;5090689;28;20035;-92
2022/11/10 06:48:11;;;;;;;44.70;34.20;;;12.90;99.90;;;;;;5090752;28;20042;-93
2022/11/10 06:51:00;;;;;;;41.63;30.90;;;13.30;99.90;;;;;;5090634;28;20086;-91
2022/11/10 06:53:46;;;;;;;37.92;31.38;;;13.80;99.90;;;;;;5091429;28;20043;-92
2022/11/10 06:56:31;;;;;;;38.65;32.67;;;14.20;99.90;;;;;;5099052;28;20044;-92
2022/11/10 06:59:16;;;;;;;42.35;35.95;;;14.50;99.90;;;;;;5091963;28;20066;-92
2022/11/10 07:02:02;;;;;;;39.80;35.60;;;14.80;99.90;;;;;;5091338;28;20059;-92
2022/11/10 07:04:49;;;;;;;38.72;34.67;;;15.00;99.90;;;;;;5091865;28;20035;-92
2022/11/10 07:07:34;;;;;;;39.03;31.45;;;15.20;99.90;;;;;;5090114;28;20051;-91
2022/11/10 07:10:20;;;;;;;34.60;30.88;;;15.50;99.90;;;;;;5090135;28;20148;-91
2022/11/10 07:13:06;;;;;;;34.53;31.10;;;15.60;99.90;;;;;;5086495;28;20090;-94
2022/11/10 07:15:51;;;;;;;37.35;30.55;;;15.80;99.90;;;;;;5077759;28;20059;-92
2022/11/10 07:22:28;;;;;;;;;;;;;;;;;;;;;
2022/11/10 07:25:39;;;;;;;32.65;29.40;;;16.40;99.90;;;;;;5103907;22;20168;-93
2022/11/10 07:28:49;;;;;;;;;;;;;;;;;;;;;
2022/11/10 07:35:27;;;;;;;32.42;29.05;;;17.00;99.90;;;;;;5035132;28;20041;-92
2022/11/10 09:44:12;;;;;;;15.45;14.45;;;20.90;99.90;;;;;;4916992;29;20059;-92
2022/11/10 09:47:01;;;;;;;15.90;14.77;;;21.40;99.90;;;;;;4917505;29;20091;-93
2022/11/10 09:50:00;;;;;;;14.90;14.00;;;21.80;99.90;;;;;;4931359;29;20035;-95
2022/11/10 09:52:49;;;;;;;15.20;14.25;;;22.00;99.90;;;;;;4917547;29;20505;-94
2022/11/10 09:55:45;;;;;;;15.70;14.77;;;21.70;99.90;;;;;;4917718;29;20092;-93
2022/11/10 09:58:40;;;;;;;15.45;14.57;;;21.90;99.90;;;;;;4917697;29;20043;-93
2022/11/10 10:01:49;;;;;;;15.50;14.70;;;22.00;99.90;;;;;;4917391;29;20043;-94
2022/11/10 10:05:19;;;;;;;16.23;15.23;;;22.30;99.90;;;;;;4917335;29;20191;-92
2022/11/10 10:08:11;;;;;;;15.18;14.18;;;22.20;99.90;;;;;;4917458;29;20054;-93
2022/11/10 10:11:25;;;;;;;16.20;15.00;;;21.80;99.90;;;;;;4917339;29;20504;-92
2022/11/10 10:14:45;;;;;;;15.73;14.82;;;22.20;99.90;;;;;;4917930;29;20051;-92
2022/11/10 10:17:37;;;;;;;15.63;14.73;;;22.20;99.90;;;;;;4917243;29;20107;-95
2022/11/10 10:20:55;;;;;;;15.65;14.65;;;22.30;99.90;;;;;;4930402;29;20051;-95
2022/11/10 10:23:53;;;;;;;15.23;14.20;;;22.20;99.90;;;;;;4930792;29;20059;-95
2022/11/10 10:26:43;;;;;;;15.13;14.32;;;22.30;99.90;;;;;;4931051;29;20047;-94
2022/11/10 10:29:58;;;;;;;15.35;14.43;;;22.40;99.90;;;;;;4916990;29;20393;-94
2022/11/10 10:32:43;;;;;;;16.17;15.15;;;22.50;99.90;;;;;;4897734;29;20101;-94
2022/11/10 10:35:30;;;;;;;15.57;14.68;;;22.50;99.90;;;;;;4884287;29;20075;-95
2022/11/10 10:38:37;;;;;;;15.68;14.48;;;22.30;99.90;;;;;;4884407;29;20524;-93
2022/11/10 10:41:26;;;;;;;15.48;14.68;;;22.40;99.90;;;;;;4884300;29;20056;-94
2022/11/10 10:44:19;;;;;;;15.75;14.52;;;22.10;99.90;;;;;;4903572;29;20196;-94
2022/11/10 10:47:04;;;;;;;15.70;14.77;;;21.90;99.90;;;;;;4903367;29;20132;-94
2022/11/10 10:49:49;;;;;;;15.75;14.60;;;21.80;99.90;;;;;;4919506;29;20123;-94
2022/11/10 10:52:34;;;;;;;15.70;14.57;;;21.80;99.90;;;;;;4920425;29;20122;-93
2022/11/10 10:55:19;;;;;;;15.32;14.52;;;21.50;99.90;;;;;;4923379;29;20068;-93
2022/11/10 10:58:26;;;;;;;15.63;14.60;;;21.40;99.90;;;;;;4922174;29;20104;-95
2022/11/10 11:01:14;;;;;;;15.30;14.40;;;21.20;99.90;;;;;;4906242;29;20580;-94
2022/11/10 11:04:05;;;;;;;15.45;14.38;;;21.10;99.90;;;;;;4906470;29;20051;-94
2022/11/10 11:07:17;;;;;;;14.80;13.88;;;21.00;99.90;;;;;;4906096;29;20055;-95
2022/11/10 11:10:16;;;;;;;15.32;14.38;;;20.90;99.90;;;;;;4933817;29;20055;-95
2022/11/10 11:13:23;;;;;;;15.50;14.55;;;20.90;99.90;;;;;;4939460;28;20135;-94
2022/11/10 11:16:11;;;;;;;16.33;15.00;;;20.80;99.90;;;;;;4934424;29;20119;-94
2022/11/10 11:18:56;;;;;;;43.53;15.52;;;20.90;99.90;;;;;;4934896;29;20075;-95
2022/11/10 11:22:03;;;;;;;16.00;14.80;;;21.10;99.90;;;;;;4933944;29;20103;-95
2022/11/10 11:25:09;;;;;;;16.30;15.10;;;21.10;99.90;;;;;;4920328;29;20043;-94
2022/11/10 11:28:26;;;;;;;15.13;14.20;;;21.10;99.90;;;;;;4934146;29;20503;-94
2022/11/10 11:31:35;;;;;;;15.23;14.32;;;20.90;99.90;;;;;;4932572;29;20051;-94
2022/11/10 11:34:45;;;;;;;15.07;14.20;;;20.70;99.90;;;;;;4933245;29;20128;-94
2022/11/10 11:38:11;;;;;;;15.60;14.68;;;20.40;99.90;;;;;;4931528;29;20051;-95
2022/11/10 11:41:15;;;;;;;15.30;14.43;;;20.40;99.90;;;;;;4883155;29;20039;-94
2022/11/10 11:44:24;;;;;;;14.82;14.02;;;20.30;99.90;;;;;;4877090;29;20052;-94
2022/11/10 11:47:36;;;;;;;15.50;14.50;;;20.30;99.90;;;;;;4982876;23;20064;-95
2022/11/10 11:51:05;;;;;;;16.27;15.20;;;19.80;99.90;;;;;;4966433;28;20131;-94
2022/11/10 11:54:21;;;;;;;15.85;14.77;;;19.60;99.90;;;;;;4954601;28;20093;-94
2022/11/10 11:57:31;;;;;;;16.67;15.50;;;19.70;99.90;;;;;;4955834;29;20049;-94
2022/11/10 12:00:20;;;;;;;15.98;14.73;;;19.60;99.90;;;;;;4951597;28;20050;-93
2022/11/10 12:03:25;;;;;;;15.57;14.43;;;19.70;99.90;;;;;;4950155;29;20065;-93
2022/11/10 12:06:35;;;;;;;15.25;14.15;;;19.90;99.90;;;;;;4956533;29;20503;-93
2022/11/10 12:09:49;;;;;;;17.25;15.93;;;19.90;99.90;;;;;;4956921;29;20435;-93
2022/11/10 12:12:53;;;;;;;15.60;14.53;;;20.00;99.90;;;;;;4957394;29;20042;-94
2022/11/10 12:16:01;;;;;;;15.32;14.40;;;20.10;99.90;;;;;;4957224;29;20057;-93
2022/11/10 13:05:44;;;;;;;12.57;11.48;;;19.50;99.90;;;;;;4978217;28;20114;-93
2022/11/10 13:08:32;;;;;;;11.20;10.50;;;19.40;99.90;;;;;;4963692;28;20080;-95
2022/11/10 13:11:18;;;;;;;11.50;10.70;;;19.30;99.90;;;;;;4964864;28;20046;-93
2022/11/10 13:14:18;;;;;;;12.13;11.05;;;19.30;99.90;;;;;;4946216;29;20042;-93
2022/11/10 13:17:03;;;;;;;11.45;10.75;;;19.40;99.90;;;;;;4949222;29;20111;-93
2022/11/10 13:19:51;;;;;;;11.45;10.57;;;19.30;99.90;;;;;;4950738;29;20066;-93
2022/11/10 13:22:41;;;;;;;11.93;10.80;;;19.20;99.90;;;;;;4961742;28;20054;-90
2022/11/10 13:25:38;;;;;;;12.00;11.00;;;19.10;99.90;;;;;;4956390;29;20059;-92
2022/11/10 13:29:11;;;;;;;11.45;10.57;;;19.00;99.90;;;;;;4943233;29;20106;-93
2022/11/10 13:31:59;;;;;;;11.60;10.70;;;18.90;99.90;;;;;;4935602;28;20042;-92
2022/11/10 13:34:46;;;;;;;11.88;10.95;;;19.00;99.90;;;;;;4941568;29;20123;-93
2022/11/10 13:37:34;;;;;;;10.77;9.98;;;18.90;99.90;;;;;;4941797;29;20066;-94
2022/11/10 13:40:29;;;;;;;10.93;9.95;;;18.90;99.90;;;;;;4942561;29;20066;-93
2022/11/10 13:43:21;;;;;;;11.00;10.13;;;18.80;99.90;;;;;;4943074;29;20062;-90
2022/11/10 13:46:06;;;;;;;10.73;9.77;;;18.70;99.90;;;;;;4945176;29;20117;-92
2022/11/10 13:49:12;;;;;;;10.63;9.73;;;18.60;99.90;;;;;;4945628;29;20054;-93
2022/11/10 13:52:07;;;;;;;11.07;10.18;;;18.60;99.90;;;;;;4948264;28;20136;-93
2022/11/10 13:55:16;;;;;;;10.23;9.43;;;18.60;99.90;;;;;;4951632;29;20062;-94
2022/11/10 13:58:16;;;;;;;10.18;9.55;;;18.60;99.90;;;;;;4953042;29;20057;-93
2022/11/10 14:01:31;;;;;;;10.45;9.65;;;18.60;99.90;;;;;;4947796;29;20063;-93
2022/11/10 14:04:34;;;;;;;10.82;9.93;;;18.70;99.90;;;;;;4902530;29;20096;-93
2022/11/10 14:07:21;;;;;;;10.77;10.07;;;18.70;99.90;;;;;;4904396;29;20174;-93
2022/11/10 14:10:32;;;;;;;11.48;10.48;;;18.70;99.90;;;;;;4905813;29;20043;-93
2022/11/10 14:13:37;;;;;;;9.80;9.20;;;18.70;99.90;;;;;;4907465;29;20569;-93
2022/11/10 14:16:24;;;;;;;;;;;18.70;99.90;;;;;;4908012;29;20043;-93
2022/11/10 14:19:38;;;;;;;10.85;10.07;;;18.60;99.90;;;;;;4909539;29;19918;-93
2022/11/10 14:22:37;;;;;;;9.68;8.90;;;18.50;99.90;;;;;;4910385;29;20070;-93
2022/11/10 14:26:02;;;;;;;10.90;10.20;;;18.40;99.90;;;;;;4911540;29;20051;-94
2022/11/10 14:28:47;;;;;;;10.30;9.52;;;18.30;99.90;;;;;;4907319;29;20043;-93
2022/11/10 14:31:34;;;;;;;9.50;8.82;;;18.30;99.90;;;;;;4904400;29;20119;-91
2022/11/10 14:34:22;;;;;;;9.07;8.43;;;18.30;99.90;;;;;;4901719;29;20080;-91
2022/11/10 14:37:21;;;;;;;9.63;8.93;;;18.10;99.90;;;;;;4901578;29;20039;-90
2022/11/10 14:40:16;;;;;;;9.77;9.10;;;18.10;99.90;;;;;;4922291;29;20169;-91
2022/11/10 14:43:01;;;;;;;9.88;9.18;;;18.10;99.90;;;;;;4945190;29;20078;-91
2022/11/10 14:45:51;;;;;;;9.60;8.70;;;18.00;99.90;;;;;;4959092;29;20063;-90
2022/11/10 14:48:37;;;;;;;9.13;8.43;;;18.00;99.90;;;;;;4958457;29;20341;-91
2022/11/10 14:51:24;;;;;;;9.45;8.68;;;18.00;99.90;;;;;;4951607;29;20087;-91
2022/11/10 14:54:11;;;;;;;8.95;8.13;;;18.00;99.90;;;;;;4947676;29;20123;-91
2022/11/10 14:56:56;;;;;;;9.73;8.82;;;17.90;99.90;;;;;;4948414;29;20106;-92
2022/11/10 14:59:41;;;;;;;9.48;8.57;;;17.90;99.90;;;;;;4947430;29;20078;-91
2022/11/10 15:02:26;;;;;;;12.77;9.55;;;17.80;99.90;;;;;;4957946;29;20054;-91
2022/11/10 15:05:15;;;;;;;9.80;8.90;;;17.80;99.90;;;;;;4958606;29;20090;-92
2022/11/10 15:08:02;;;;;;;9.70;8.70;;;17.80;99.90;;;;;;4945876;29;20039;-92
2022/11/10 15:10:49;;;;;;;9.45;8.60;;;17.70;99.90;;;;;;4949140;29;20118;-92
2022/11/10 15:13:38;;;;;;;9.40;8.57;;;17.70;99.90;;;;;;4945966;29;20051;-91
2022/11/10 15:16:27;;;;;;;8.90;8.10;;;17.70;99.90;;;;;;4945574;29;20035;-92
2022/11/10 15:19:23;;;;;;;9.88;8.88;;;17.60;99.90;;;;;;4945304;29;20515;-93
2022/11/10 15:22:15;;;;;;;9.57;8.88;;;17.50;99.90;;;;;;4944446;28;20050;-93
2022/11/10 15:25:08;;;;;;;10.73;8.90;;;17.50;99.90;;;;;;4944763;29;20070;-92
2022/11/10 15:28:11;;;;;;;9.38;8.48;;;17.50;99.90;;;;;;4944637;29;20089;-93
2022/11/10 15:31:04;;;;;;;11.65;8.27;;;17.40;99.90;;;;;;4944697;29;20499;-93
2022/11/10 15:33:52;;;;;;;9.88;8.93;;;17.30;99.90;;;;;;4944198;28;20067;-93
2022/11/10 15:36:40;;;;;;;9.35;8.55;;;17.30;99.90;;;;;;4945291;29;20087;-93
2022/11/10 15:39:26;;;;;;;9.13;8.38;;;17.20;99.90;;;;;;4947940;29;20045;-93
2022/11/10 15:42:23;;;;;;;10.32;9.07;;;17.20;99.90;;;;;;4945356;28;20548;-94
2022/11/10 15:45:09;;;;;;;8.65;7.95;;;17.10;99.90;;;;;;4944897;29;20094;-93
2022/11/10 15:47:54;;;;;;;12.45;9.07;;;17.10;99.90;;;;;;4944721;29;20062;-92
2022/11/10 15:50:42;;;;;;;14.32;8.27;;;17.10;99.90;;;;;;4945210;29;20042;-92
2022/11/10 15:53:32;;;;;;;11.15;8.15;;;17.10;99.90;;;;;;4946409;29;20038;-93
2022/11/10 15:56:20;;;;;;;12.10;9.23;;;17.10;99.90;;;;;;4944500;29;20063;-92
2022/11/10 15:59:04;;;;;;;15.95;9.80;;;17.10;99.90;;;;;;4944292;29;20507;-92
2022/11/10 16:01:50;;;;;;;17.55;10.48;;;17.00;99.90;;;;;;4943920;28;20115;-92
2022/11/10 16:04:35;;;;;;;20.77;10.88;;;16.90;99.90;;;;;;4943325;29;20094;-93
2022/11/10 16:07:20;;;;;;;15.73;9.75;;;16.80;99.90;;;;;;4944100;29;20095;-93
2022/11/10 16:10:05;;;;;;;17.10;11.25;;;16.70;99.90;;;;;;4944803;29;20133;-91
2022/11/10 16:12:50;;;;;;;22.40;11.82;;;16.60;99.90;;;;;;4944760;29;20496;-92
2022/11/10 16:15:35;;;;;;;30.35;13.13;;;16.50;99.90;;;;;;4944181;29;20500;-93
2022/11/10 16:18:23;;;;;;;27.45;14.27;;;16.50;99.90;;;;;;4943888;29;20127;-92
2022/11/10 16:21:13;;;;;;;29.45;14.50;;;16.50;99.90;;;;;;4943925;29;20142;-91
2022/11/10 16:23:58;;;;;;;35.20;13.68;;;16.40;99.90;;;;;;4944042;29;20102;-92
2022/11/10 16:26:43;;;;;;;33.30;14.13;;;16.40;99.90;;;;;;4943297;29;20063;-92
2022/11/10 16:29:30;;;;;;;27.30;12.05;;;16.30;99.90;;;;;;4943879;29;20102;-92
2022/11/10 16:32:16;;;;;;;24.95;13.43;;;16.20;99.90;;;;;;4943800;28;20039;-93
2022/11/10 16:35:02;;;;;;;34.35;14.75;;;16.20;99.90;;;;;;4943793;29;20069;-93
2022/11/10 16:37:47;;;;;;;28.63;14.32;;;16.10;99.90;;;;;;4944020;29;20082;-93
2022/11/10 16:40:32;;;;;;;23.00;13.50;;;16.00;99.90;;;;;;4960385;29;20066;-92
2022/11/10 16:43:18;;;;;;;29.95;14.43;;;16.00;99.90;;;;;;4947396;29;20089;-93
2022/11/10 16:46:13;;;;;;;26.45;13.93;;;16.00;99.90;;;;;;4943048;29;20062;-93
2022/11/10 16:49:00;;;;;;;26.90;12.38;;;16.00;99.90;;;;;;4943997;29;20120;-92
2022/11/10 16:51:44;;;;;;;20.58;12.13;;;16.00;99.90;;;;;;4947599;28;20053;-92
2022/11/10 16:54:30;;;;;;;23.00;12.52;;;16.00;99.90;;;;;;4947230;29;20058;-92
2022/11/10 16:57:16;;;;;;;26.35;12.57;;;16.00;99.90;;;;;;4943485;29;20050;-93
2022/11/10 17:00:02;;;;;;;21.10;12.55;;;16.00;99.90;;;;;;4943761;29;20050;-93
2022/11/10 17:03:19;;;;;;;19.30;10.52;;;16.00;99.90;;;;;;4942538;29;20050;-94
2022/11/10 17:06:04;;;;;;;18.02;10.88;;;15.90;99.90;;;;;;4945093;29;20570;-93
2022/11/10 17:08:51;;;;;;;18.58;11.75;;;15.90;99.90;;;;;;4944063;29;20089;-94
2022/11/10 17:11:35;;;;;;;15.73;10.15;;;15.90;99.90;;;;;;4942821;28;20046;-94
2022/11/10 17:14:20;;;;;;;;;;;15.90;99.90;;;;;;4943358;29;20122;-94
2022/11/10 17:17:07;;;;;;;11.10;9.15;;;15.90;99.90;;;;;;4942883;29;19918;-93
2022/11/10 17:19:52;;;;;;;10.65;8.85;;;15.90;99.90;;;;;;4942388;29;20073;-92
2022/11/10 17:22:38;;;;;;;12.05;10.70;;;16.00;99.90;;;;;;4942165;29;20054;-91
2022/11/10 17:25:30;;;;;;;13.82;9.32;;;16.10;99.90;;;;;;4942662;29;20098;-93
2022/11/10 17:28:17;;;;;;;17.10;12.55;;;16.10;99.90;;;;;;4942245;29;20042;-92
2022/11/10 17:31:02;;;;;;;19.20;13.48;;;16.20;99.90;;;;;;4946557;29;20046;-91
2022/11/10 17:33:47;;;;;;;14.18;10.45;;;16.20;99.90;;;;;;4942476;29;20090;-91
2022/11/10 17:36:33;;;;;;;;;;;16.20;99.90;;;;;;4942860;29;20106;-92
2022/11/10 17:39:18;;;;;;;23.02;16.40;;;16.10;99.90;;;;;;4942261;29;20379;-91
2022/11/10 17:42:03;;;;;;;15.77;12.25;;;16.10;99.90;;;;;;4942069;28;20042;-91
2022/11/10 17:44:48;;;;;;;16.80;12.88;;;16.00;99.90;;;;;;4941776;29;20045;-92
2022/11/10 17:47:32;;;;;;;19.35;12.80;;;15.90;99.90;;;;;;4942325;29;20441;-92
2022/11/10 17:50:19;;;;;;;20.80;14.07;;;15.90;99.90;;;;;;4941999;29;20112;-92